Decatur, Texas
Current Conditions -  °F | °C
As of 5:55 PM on Monday 22 Dec 2014 (Local Time) from KLUD Reporting Station
Clear Clear  
Wind Chill: 54°   Ceiling: Unl
Heat Index: 54°   Visibility: 10mi
Dew Point: 40°   Wind: 6mph
Humidity: 61%   Direction: 320°NW
Pressure: 29.65"   Gusts: NA
Location:  33.23°N, 97.59°W
Report Text: KLUD 222355Z AUTO 32005KT 10SM CLR 12/05 A2965 RMK AO2 T01200047 10145 20120
Loading
Personal Weather Stations






























Interactive Weather Map New forecast layout! Learn more

10-Day Weather Forecast

Advertisements
Track Severe Weather on mobile